Time;durP1;ratioP1;P1;durP2;ratioP2;P2;SDS_P1;SDS_P2;PMS_P1;PMS_P2;Temp;Humidity;BMP_temperature;BMP_pressure;BME280_temperature;BME280_humidity;BME280_pressure;Samples;Min_cycle;Max_cycle;Signal;HPM_P1;HPM_P2
2021/08/29 00:01:46;;;;;;;18.33;12.18;;;16.10;74.20;;;;;;5108184;28;20037;-65
2021/08/29 00:04:14;;;;;;;17.65;10.52;;;16.10;74.50;;;;;;5109888;28;20138;-72
2021/08/29 00:06:47;;;;;;;18.42;11.75;;;16.10;74.20;;;;;;5109675;28;20023;-66
2021/08/29 00:09:23;;;;;;;16.83;10.32;;;16.20;74.50;;;;;;5104395;28;20031;-66
2021/08/29 00:11:51;;;;;;;17.25;10.85;;;16.10;74.40;;;;;;5111392;28;20016;-63
2021/08/29 00:14:28;;;;;;;14.50;9.60;;;16.10;74.40;;;;;;5109332;28;20132;-63
2021/08/29 00:17:29;;;;;;;18.40;12.13;;;16.20;74.70;;;;;;5110770;28;20034;-68
2021/08/29 00:19:57;;;;;;;17.48;11.02;;;16.20;74.80;;;;;;5030542;28;20057;-65
2021/08/29 00:22:25;;;;;;;17.60;10.90;;;16.20;74.80;;;;;;5110264;28;20100;-67
2021/08/29 00:24:52;;;;;;;15.52;10.65;;;16.10;74.70;;;;;;5093345;28;20023;-69
2021/08/29 00:27:20;;;;;;;17.63;11.05;;;16.10;74.90;;;;;;5111528;28;20447;-72
2021/08/29 00:29:47;;;;;;;22.80;12.50;;;16.10;74.90;;;;;;5111029;28;20024;-73
2021/08/29 00:32:15;;;;;;;14.85;10.73;;;16.10;75.00;;;;;;5092455;28;20031;-64
2021/08/29 00:34:46;;;;;;;14.75;10.55;;;16.10;75.00;;;;;;5110494;28;20084;-69
2021/08/29 00:37:17;;;;;;;20.10;10.98;;;16.10;75.00;;;;;;5110716;28;20011;-56
2021/08/29 00:39:44;;;;;;;16.30;9.27;;;16.20;74.80;;;;;;5099691;28;20043;-66
2021/08/29 00:42:12;;;;;;;18.10;13.15;;;16.20;72.70;;;;;;5090405;28;20027;-60
2021/08/29 00:44:45;;;;;;;19.75;14.82;;;16.20;72.30;;;;;;5108222;28;20028;-65
2021/08/29 00:47:13;;;;;;;17.52;13.23;;;16.20;72.20;;;;;;5108916;28;20042;-57
2021/08/29 00:49:44;;;;;;;24.27;18.45;;;16.20;71.30;;;;;;5091685;28;20140;-66
2021/08/29 00:52:18;;;;;;;27.63;21.27;;;16.10;71.90;;;;;;5109760;28;20351;-70
2021/08/29 00:54:49;;;;;;;24.20;18.98;;;16.10;72.20;;;;;;5111696;28;20428;-68
2021/08/29 00:57:21;;;;;;;29.67;19.00;;;16.10;72.30;;;;;;5110389;28;20020;-64
2021/08/29 01:00:11;;;;;;;25.38;20.48;;;16.00;73.20;;;;;;5111550;28;20848;-62
2021/08/29 01:02:48;;;;;;;28.73;22.85;;;16.00;73.30;;;;;;5093833;28;20030;-66
2021/08/29 01:05:31;;;;;;;28.10;22.38;;;16.00;73.30;;;;;;5111741;28;20031;-66
2021/08/29 01:08:01;;;;;;;30.13;23.10;;;16.00;73.60;;;;;;5110138;28;20019;-64
2021/08/29 01:10:53;;;;;;;37.05;32.90;;;16.00;73.90;;;;;;5110337;28;20481;-70
2021/08/29 01:13:25;;;;;;;27.05;22.95;;;16.00;74.20;;;;;;5109930;28;20133;-66
2021/08/29 01:16:08;;;;;;;27.10;22.45;;;16.00;74.20;;;;;;5111666;28;20024;-65
2021/08/29 01:18:51;;;;;;;29.70;26.58;;;16.10;74.00;;;;;;5093103;28;20035;-64
2021/08/29 01:21:26;;;;;;;;;;;16.10;74.30;;;;;;5092587;28;20044;-65
2021/08/29 01:24:15;;;;;;;27.73;23.63;;;16.10;74.50;;;;;;5111382;28;20365;-64
2021/08/29 01:27:16;;;;;;;26.88;22.02;;;16.10;75.30;;;;;;5110563;28;20127;-65
2021/08/29 01:29:44;;;;;;;27.65;23.63;;;16.20;75.20;;;;;;5110971;28;20028;-70
2021/08/29 01:32:12;;;;;;;26.00;23.25;;;16.30;74.80;;;;;;5110248;28;20080;-71
2021/08/29 01:34:49;;;;;;;32.00;28.02;;;16.30;74.20;;;;;;5108990;28;20024;-64
2021/08/29 01:40:39;;;;;;;30.75;24.50;;;16.40;74.40;;;;;;5085027;28;20085;-65
2021/08/29 01:43:56;;;;;;;;;;;;;;;;;;;;;
2021/08/29 01:46:52;;;;;;;24.33;21.50;;;16.50;74.00;;;;;;5033166;28;20037;-65
2021/08/29 01:49:22;;;;;;;26.40;21.42;;;16.50;74.60;;;;;;5108594;28;20478;-67
2021/08/29 01:51:55;;;;;;;25.30;19.05;;;16.60;74.90;;;;;;5110709;28;20038;-62
2021/08/29 01:54:29;;;;;;;19.65;17.60;;;16.60;74.90;;;;;;5110102;28;20089;-63
2021/08/29 01:57:11;;;;;;;22.48;20.13;;;16.60;74.10;;;;;;5109615;28;20042;-66
2021/08/29 01:59:39;;;;;;;22.25;19.80;;;16.60;74.80;;;;;;5111264;28;20032;-66
2021/08/29 02:02:17;;;;;;;17.98;15.55;;;16.60;74.50;;;;;;5110791;28;20032;-69
2021/08/29 02:04:58;;;;;;;23.20;15.95;;;16.60;74.20;;;;;;5113108;28;20389;-65
2021/08/29 02:07:43;;;;;;;24.10;20.23;;;16.70;74.10;;;;;;5111801;28;20023;-68
2021/08/29 02:10:19;;;;;;;18.48;16.23;;;16.70;74.40;;;;;;5112207;28;20032;-63
2021/08/29 02:13:14;;;;;;;19.85;16.98;;;16.60;74.20;;;;;;5114318;28;20030;-67
2021/08/29 02:15:52;;;;;;;17.92;13.25;;;16.70;73.70;;;;;;5104195;28;20067;-62
2021/08/29 02:18:24;;;;;;;19.48;14.98;;;16.70;73.00;;;;;;5113084;28;20040;-63
2021/08/29 02:20:54;;;;;;;;;;;16.70;74.20;;;;;;5113482;28;20486;-64
2021/08/29 02:23:27;;;;;;;16.70;13.60;;;16.80;74.40;;;;;;5093684;28;19918;-61
2021/08/29 02:25:55;;;;;;;15.55;12.07;;;16.80;73.20;;;;;;5113225;28;20109;-65
2021/08/29 02:28:27;;;;;;;14.77;12.27;;;16.90;74.00;;;;;;5113233;28;20016;-63
2021/08/29 02:30:55;;;;;;;14.88;13.25;;;16.90;74.00;;;;;;5114288;28;20100;-63
2021/08/29 02:33:44;;;;;;;17.63;13.45;;;17.00;74.50;;;;;;5112486;28;20059;-65
2021/08/29 02:36:12;;;;;;;14.05;12.13;;;17.00;74.30;;;;;;5112882;28;20359;-65
2021/08/29 02:38:43;;;;;;;14.93;12.02;;;17.00;74.00;;;;;;5112476;28;20042;-64
2021/08/29 02:41:14;;;;;;;16.20;11.50;;;17.10;73.20;;;;;;5112998;28;20023;-61
2021/08/29 02:43:46;;;;;;;17.97;11.83;;;17.10;72.10;;;;;;5112792;28;20020;-67
2021/08/29 02:46:14;;;;;;;14.70;9.95;;;17.30;72.20;;;;;;5114039;28;20031;-65
2021/08/29 02:48:44;;;;;;;13.73;9.25;;;17.20;72.00;;;;;;5112233;28;20119;-66
2021/08/29 02:51:14;;;;;;;12.48;8.60;;;17.30;72.30;;;;;;5114551;28;20027;-66
2021/08/29 02:53:42;;;;;;;13.57;10.50;;;17.30;71.60;;;;;;5112858;28;20027;-69
2021/08/29 02:56:11;;;;;;;11.35;8.60;;;17.30;71.90;;;;;;5111756;28;20023;-70
2021/08/29 02:58:40;;;;;;;11.75;8.50;;;17.40;71.10;;;;;;5113456;28;20058;-65
2021/08/29 03:01:07;;;;;;;10.82;8.93;;;17.40;71.20;;;;;;5113658;28;20058;-65
2021/08/29 03:03:38;;;;;;;9.80;7.25;;;17.50;71.00;;;;;;5112506;28;20027;-66
2021/08/29 03:06:06;;;;;;;13.82;8.00;;;17.50;71.30;;;;;;5094623;28;21190;-68
2021/08/29 03:08:33;;;;;;;11.15;8.18;;;17.50;72.60;;;;;;5113055;28;20077;-64
2021/08/29 03:11:01;;;;;;;12.05;8.60;;;17.60;72.60;;;;;;5111518;28;20030;-69
2021/08/29 03:13:31;;;;;;;13.93;8.95;;;17.60;72.50;;;;;;5119734;28;20050;-68
2021/08/29 03:15:59;;;;;;;8.95;8.00;;;17.70;72.90;;;;;;5121015;28;20016;-68
2021/08/29 03:18:28;;;;;;;11.77;7.07;;;17.70;73.10;;;;;;5118006;28;20042;-75
2021/08/29 03:20:55;;;;;;;9.30;6.03;;;17.80;72.30;;;;;;5121043;28;20030;-68
2021/08/29 03:23:23;;;;;;;9.75;7.20;;;17.80;71.60;;;;;;5122033;28;20022;-68
2021/08/29 03:25:50;;;;;;;9.68;6.20;;;17.80;72.20;;;;;;5121312;28;20047;-67
2021/08/29 03:28:18;;;;;;;11.48;7.13;;;17.80;70.90;;;;;;5124734;28;20023;-75
2021/08/29 03:30:45;;;;;;;8.70;6.50;;;17.80;71.80;;;;;;5124708;28;20320;-75
2021/08/29 03:33:13;;;;;;;12.05;6.63;;;17.80;71.50;;;;;;5121776;28;20044;-71
2021/08/29 03:35:41;;;;;;;12.13;5.80;;;17.90;71.00;;;;;;5124086;28;20058;-74
2021/08/29 03:38:08;;;;;;;9.98;5.45;;;17.90;71.00;;;;;;5119539;28;20055;-66
2021/08/29 03:40:38;;;;;;;7.43;5.40;;;17.90;71.40;;;;;;5120505;28;20043;-72
2021/08/29 03:43:06;;;;;;;9.93;5.28;;;17.90;70.70;;;;;;5120560;28;20474;-67
2021/08/29 03:45:34;;;;;;;8.48;6.22;;;18.00;69.60;;;;;;5123299;28;20024;-61
2021/08/29 03:48:03;;;;;;;10.45;5.32;;;18.00;69.80;;;;;;5107367;28;20051;-70
2021/08/29 03:50:31;;;;;;;9.63;6.05;;;18.00;69.70;;;;;;5124727;28;20028;-76
2021/08/29 03:52:58;;;;;;;8.18;5.20;;;18.00;69.50;;;;;;5123554;28;20095;-72
2021/08/29 03:55:27;;;;;;;10.43;5.70;;;18.00;69.20;;;;;;5122064;28;20024;-73
2021/08/29 03:57:58;;;;;;;11.93;5.75;;;17.90;69.50;;;;;;5122983;28;20036;-70
2021/08/29 04:00:26;;;;;;;7.70;5.07;;;17.80;70.00;;;;;;5120303;28;20485;-75
2021/08/29 04:02:54;;;;;;;8.85;6.50;;;17.90;69.70;;;;;;5120494;28;20030;-63
2021/08/29 04:05:21;;;;;;;9.00;4.90;;;17.80;71.90;;;;;;5115575;28;20027;-62
2021/08/29 04:07:52;;;;;;;10.15;5.68;;;17.80;70.30;;;;;;5122143;28;20041;-70
2021/08/29 04:10:22;;;;;;;8.32;5.47;;;17.90;71.60;;;;;;5121267;28;20363;-67
2021/08/29 04:12:51;;;;;;;9.27;6.20;;;17.90;69.70;;;;;;5106073;28;20034;-61
2021/08/29 04:15:19;;;;;;;7.50;5.18;;;18.00;69.70;;;;;;5112283;28;20031;-63
2021/08/29 04:17:47;;;;;;;11.50;4.90;;;18.10;70.50;;;;;;5112780;28;20030;-62
2021/08/29 04:20:16;;;;;;;8.13;5.18;;;18.10;66.80;;;;;;5111557;28;20513;-63
2021/08/29 04:22:43;;;;;;;7.90;5.70;;;18.20;69.40;;;;;;5112382;28;20023;-63
2021/08/29 04:25:12;;;;;;;7.28;5.38;;;18.20;69.90;;;;;;5125640;27;20051;-58
2021/08/29 04:27:42;;;;;;;7.25;4.80;;;18.10;68.10;;;;;;5113051;28;20022;-59
2021/08/29 04:30:11;;;;;;;6.88;4.55;;;18.20;65.60;;;;;;5109286;28;20438;-65
2021/08/29 04:32:44;;;;;;;7.75;4.55;;;18.20;68.20;;;;;;5089316;28;20165;-53
2021/08/29 04:35:12;;;;;;;6.07;3.53;;;18.20;66.30;;;;;;5110699;28;20035;-62
2021/08/29 04:37:39;;;;;;;8.15;4.05;;;18.20;66.30;;;;;;5108228;28;20114;-62
2021/08/29 04:40:07;;;;;;;3.40;2.53;;;18.30;65.80;;;;;;5112177;28;20492;-60
2021/08/29 04:42:35;;;;;;;6.07;3.50;;;18.30;64.00;;;;;;5111152;28;20630;-61
2021/08/29 04:45:05;;;;;;;5.38;2.80;;;18.30;64.80;;;;;;5107904;28;20102;-64
2021/08/29 04:47:33;;;;;;;5.28;2.92;;;18.30;64.30;;;;;;5112994;28;20084;-60
2021/08/29 04:50:00;;;;;;;4.95;2.60;;;18.30;63.50;;;;;;5112330;28;20114;-63
2021/08/29 04:52:27;;;;;;;5.28;2.08;;;18.30;62.90;;;;;;5110450;28;20403;-60
2021/08/29 04:54:55;;;;;;;12.10;3.25;;;18.30;60.40;;;;;;5096610;28;20028;-61
2021/08/29 04:57:22;;;;;;;4.47;2.10;;;18.30;61.60;;;;;;5088664;28;20074;-59
2021/08/29 04:59:49;;;;;;;9.85;2.67;;;18.30;61.80;;;;;;5107436;28;20031;-58
2021/08/29 05:02:17;;;;;;;5.85;2.40;;;18.20;62.80;;;;;;5087506;28;20476;-61
2021/08/29 05:04:44;;;;;;;4.50;2.28;;;18.10;63.20;;;;;;5098778;28;20040;-58
2021/08/29 05:07:12;;;;;;;4.47;2.15;;;18.10;63.70;;;;;;5107136;28;20099;-64
2021/08/29 05:09:39;;;;;;;8.60;2.55;;;18.10;63.80;;;;;;5107106;28;20174;-59
2021/08/29 05:12:07;;;;;;;5.57;2.15;;;18.00;64.90;;;;;;5106446;28;20026;-65
2021/08/29 05:14:35;;;;;;;3.45;1.75;;;18.00;65.20;;;;;;5103070;28;20023;-59
2021/08/29 05:17:03;;;;;;;4.53;2.30;;;17.90;64.30;;;;;;5107129;28;20019;-61
2021/08/29 05:19:30;;;;;;;3.22;2.28;;;17.90;65.80;;;;;;5106992;28;20031;-60
2021/08/29 05:21:58;;;;;;;8.02;2.90;;;17.90;65.20;;;;;;5105901;28;20019;-56
2021/08/29 05:24:28;;;;;;;5.40;2.30;;;17.90;66.70;;;;;;5102736;28;20049;-61
2021/08/29 05:27:00;;;;;;;4.32;1.85;;;17.90;67.20;;;;;;5108125;28;20024;-62
2021/08/29 05:29:27;;;;;;;5.07;1.73;;;17.90;65.70;;;;;;5104445;28;20088;-59
2021/08/29 05:31:55;;;;;;;5.00;2.30;;;17.90;65.90;;;;;;5105654;28;20055;-65
2021/08/29 05:34:22;;;;;;;4.70;1.90;;;17.90;67.90;;;;;;5106423;28;20030;-64
2021/08/29 05:36:50;;;;;;;3.92;2.28;;;17.90;65.60;;;;;;5111810;28;20046;-61
2021/08/29 05:39:17;;;;;;;6.78;3.13;;;17.90;68.00;;;;;;5114942;28;20168;-64
2021/08/29 05:41:45;;;;;;;4.32;2.10;;;17.90;68.60;;;;;;5114981;28;20494;-56
2021/08/29 05:44:12;;;;;;;4.55;1.80;;;17.90;67.60;;;;;;5109811;28;20038;-66
2021/08/29 05:46:40;;;;;;;4.32;2.03;;;17.90;66.90;;;;;;5115587;28;20011;-67
2021/08/29 05:49:10;;;;;;;5.05;1.92;;;17.90;67.50;;;;;;5115616;28;20023;-64
2021/08/29 05:51:39;;;;;;;5.70;1.90;;;17.90;67.70;;;;;;5114743;28;20030;-68
2021/08/29 05:54:07;;;;;;;5.22;1.92;;;17.90;67.40;;;;;;5110199;28;20055;-68
2021/08/29 05:56:34;;;;;;;5.85;2.00;;;17.90;67.80;;;;;;5114681;28;20038;-62
2021/08/29 05:59:01;;;;;;;3.05;1.92;;;17.90;67.80;;;;;;5114113;28;20040;-64
2021/08/29 06:01:29;;;;;;;3.28;2.05;;;17.80;66.40;;;;;;5115395;28;20016;-61
2021/08/29 06:03:56;;;;;;;9.05;2.25;;;17.80;68.40;;;;;;5110095;28;20069;-67
2021/08/29 06:06:24;;;;;;;5.97;1.85;;;17.80;68.10;;;;;;5110992;28;20008;-68
2021/08/29 06:08:51;;;;;;;7.80;1.85;;;17.80;66.60;;;;;;5115759;28;20058;-70
2021/08/29 06:11:19;;;;;;;3.55;2.05;;;17.80;66.90;;;;;;5116180;28;21020;-64
2021/08/29 06:13:46;;;;;;;4.40;2.08;;;17.80;69.60;;;;;;5109961;28;20035;-69
2021/08/29 06:16:14;;;;;;;3.85;1.88;;;17.70;70.40;;;;;;5114758;28;20019;-54
2021/08/29 06:18:41;;;;;;;5.32;1.90;;;17.70;70.60;;;;;;5114419;28;20036;-60
2021/08/29 06:21:09;;;;;;;2.83;1.83;;;17.70;69.60;;;;;;5114405;28;20020;-65
2021/08/29 06:23:36;;;;;;;2.15;1.80;;;17.70;69.40;;;;;;5109492;28;20031;-63
2021/08/29 06:26:04;;;;;;;4.70;2.00;;;17.70;69.40;;;;;;5114927;28;20020;-68
2021/08/29 06:28:31;;;;;;;4.45;1.65;;;17.70;69.90;;;;;;5114962;28;20370;-63
2021/08/29 06:30:58;;;;;;;3.38;1.60;;;17.70;70.10;;;;;;5115155;28;20127;-65
2021/08/29 06:33:26;;;;;;;3.78;2.28;;;17.70;70.60;;;;;;5109125;28;20055;-62
2021/08/29 06:35:55;;;;;;;6.60;1.90;;;17.70;70.30;;;;;;5114101;28;20039;-67
2021/08/29 06:38:23;;;;;;;3.40;1.75;;;17.70;70.90;;;;;;5114487;28;20035;-62
2021/08/29 06:40:51;;;;;;;5.30;2.22;;;17.60;71.30;;;;;;5114506;28;20035;-64
2021/08/29 06:43:18;;;;;;;5.82;1.80;;;17.60;71.20;;;;;;5090233;28;20378;-61
2021/08/29 06:45:45;;;;;;;3.83;1.98;;;17.60;71.40;;;;;;5113993;28;20038;-66
2021/08/29 06:48:13;;;;;;;2.63;1.67;;;17.60;71.60;;;;;;5114734;28;20065;-61
2021/08/29 06:50:40;;;;;;;4.20;2.33;;;17.50;71.90;;;;;;5114012;28;20452;-64
2021/08/29 06:53:08;;;;;;;3.25;1.70;;;17.60;72.00;;;;;;5109627;28;20031;-73
2021/08/29 06:55:35;;;;;;;5.03;2.00;;;17.50;71.90;;;;;;5114014;28;20659;-72
2021/08/29 06:58:03;;;;;;;2.90;1.70;;;17.50;72.10;;;;;;5114815;28;20019;-67
2021/08/29 07:00:30;;;;;;;3.47;2.05;;;17.50;72.10;;;;;;5114556;28;20386;-63
2021/08/29 07:03:06;;;;;;;3.97;2.42;;;17.50;72.10;;;;;;5105919;28;20038;-69
2021/08/29 07:05:33;;;;;;;4.28;2.03;;;17.40;72.10;;;;;;5113080;28;20050;-65
2021/08/29 07:08:01;;;;;;;4.25;2.40;;;17.50;71.90;;;;;;5114457;28;20089;-64
2021/08/29 07:10:28;;;;;;;4.07;2.03;;;17.40;72.60;;;;;;5113619;28;20031;-70
2021/08/29 07:12:56;;;;;;;3.85;2.17;;;17.40;71.90;;;;;;5111801;28;20022;-66
2021/08/29 07:15:23;;;;;;;3.40;1.85;;;17.40;72.20;;;;;;5112493;28;20099;-71
2021/08/29 07:17:51;;;;;;;4.45;2.08;;;17.40;72.60;;;;;;5114250;28;20016;-66
2021/08/29 07:20:18;;;;;;;2.90;1.75;;;17.40;72.70;;;;;;5113735;28;20028;-66
2021/08/29 07:22:46;;;;;;;3.42;1.73;;;17.40;72.80;;;;;;5112600;28;20026;-71
2021/08/29 07:25:13;;;;;;;2.72;1.65;;;17.40;72.80;;;;;;5110972;28;20034;-70
2021/08/29 07:27:47;;;;;;;3.35;1.55;;;17.40;72.70;;;;;;5113601;28;20107;-64
2021/08/29 07:30:22;;;;;;;4.18;1.80;;;17.30;73.10;;;;;;5113985;28;20038;-73
2021/08/29 07:32:50;;;;;;;3.00;1.60;;;17.30;73.20;;;;;;5093078;28;20086;-66
2021/08/29 07:35:17;;;;;;;2.85;1.50;;;17.30;73.30;;;;;;5111209;28;20099;-71
2021/08/29 07:37:45;;;;;;;2.42;1.70;;;17.30;73.60;;;;;;5113791;28;20069;-66
2021/08/29 07:40:13;;;;;;;2.83;1.88;;;17.30;73.70;;;;;;5091719;28;20609;-69
2021/08/29 07:42:41;;;;;;;2.17;1.27;;;17.20;73.90;;;;;;5113900;28;20024;-67
2021/08/29 07:45:09;;;;;;;3.25;2.05;;;17.20;73.90;;;;;;5109020;28;20363;-70
2021/08/29 07:47:39;;;;;;;1.88;1.60;;;17.20;73.80;;;;;;5113514;28;20166;-68
2021/08/29 07:50:07;;;;;;;5.03;1.83;;;17.20;73.90;;;;;;5095112;28;20426;-69
2021/08/29 07:52:34;;;;;;;2.97;1.90;;;17.20;73.70;;;;;;5113016;28;20019;-71
2021/08/29 07:55:02;;;;;;;3.70;2.40;;;17.10;73.70;;;;;;5109322;28;20047;-70
2021/08/29 07:57:29;;;;;;;2.78;1.83;;;17.10;74.00;;;;;;5112973;28;20023;-73
2021/08/29 08:00:01;;;;;;;3.70;1.70;;;17.10;73.80;;;;;;5113712;28;20028;-70
2021/08/29 08:02:28;;;;;;;4.53;2.23;;;17.10;74.00;;;;;;5111615;28;20453;-68
2021/08/29 08:04:56;;;;;;;3.22;1.67;;;17.00;74.00;;;;;;5109105;28;20461;-65
2021/08/29 08:07:27;;;;;;;3.63;2.15;;;17.00;74.10;;;;;;5112720;28;20022;-66
2021/08/29 08:09:55;;;;;;;3.10;2.08;;;17.00;74.00;;;;;;5109802;28;20027;-66
2021/08/29 08:12:22;;;;;;;4.80;2.20;;;16.90;74.20;;;;;;5108257;28;20030;-68
2021/08/29 08:14:50;;;;;;;5.05;2.20;;;16.90;74.20;;;;;;5108859;28;20019;-67
2021/08/29 08:17:17;;;;;;;3.50;1.90;;;16.80;74.30;;;;;;5112929;28;20031;-69
2021/08/29 08:19:45;;;;;;;3.03;1.77;;;16.80;74.40;;;;;;5113207;28;20118;-66
2021/08/29 08:22:12;;;;;;;6.18;2.47;;;16.80;74.60;;;;;;5112458;28;20094;-63
2021/08/29 08:24:40;;;;;;;2.63;2.28;;;16.70;74.50;;;;;;5108121;28;20019;-63
2021/08/29 08:27:07;;;;;;;3.35;1.88;;;16.70;74.40;;;;;;5113269;28;20020;-69
2021/08/29 08:29:35;;;;;;;7.60;4.32;;;16.70;74.90;;;;;;5109434;28;20027;-62
2021/08/29 08:32:02;;;;;;;9.63;6.50;;;16.60;75.00;;;;;;5113689;28;20112;-65
2021/08/29 08:34:30;;;;;;;14.95;8.95;;;16.60;74.80;;;;;;5109981;28;20077;-71
2021/08/29 08:36:57;;;;;;;19.98;12.15;;;16.60;74.90;;;;;;5113241;28;20051;-65
2021/08/29 08:39:27;;;;;;;20.23;11.85;;;16.60;75.10;;;;;;5112339;28;20118;-65
2021/08/29 08:41:55;;;;;;;17.65;11.93;;;16.50;75.00;;;;;;5113466;28;20019;-68
2021/08/29 08:44:22;;;;;;;23.85;14.52;;;16.50;75.10;;;;;;5106428;28;20027;-67
2021/08/29 08:46:55;;;;;;;30.45;14.35;;;16.60;75.30;;;;;;5111517;28;20027;-65
2021/08/29 08:49:25;;;;;;;25.85;16.10;;;16.50;75.20;;;;;;5109812;28;20489;-70
2021/08/29 08:51:56;;;;;;;28.45;16.27;;;16.50;75.30;;;;;;5110539;28;20024;-67
2021/08/29 08:54:25;;;;;;;22.52;14.82;;;16.50;75.50;;;;;;5089381;28;20076;-73
2021/08/29 08:56:53;;;;;;;24.02;14.80;;;16.50;75.50;;;;;;5110092;28;20023;-61
2021/08/29 08:59:21;;;;;;;29.63;16.55;;;16.50;75.50;;;;;;5109673;28;20458;-70
2021/08/29 09:01:48;;;;;;;27.98;16.38;;;16.50;75.50;;;;;;5108867;28;20026;-68
2021/08/29 09:04:16;;;;;;;30.80;16.88;;;16.50;75.50;;;;;;5104367;28;20020;-68
2021/08/29 09:06:44;;;;;;;28.52;16.80;;;16.50;75.50;;;;;;5109938;28;20153;-71
2021/08/29 09:09:12;;;;;;;29.95;16.77;;;16.50;75.60;;;;;;5112298;28;20027;-69
2021/08/29 09:11:40;;;;;;;32.25;18.15;;;16.50;75.60;;;;;;5110221;28;20012;-74
2021/08/29 09:14:08;;;;;;;27.45;17.58;;;16.50;75.40;;;;;;5107481;28;20020;-64
2021/08/29 09:16:36;;;;;;;29.23;18.35;;;16.50;75.60;;;;;;5116870;28;20065;-72
2021/08/29 09:19:05;;;;;;;28.38;18.42;;;16.40;75.60;;;;;;5116595;28;20092;-69
2021/08/29 09:21:38;;;;;;;30.95;18.05;;;16.40;75.60;;;;;;5116232;28;20011;-66
2021/08/29 09:24:12;;;;;;;30.70;18.15;;;16.50;75.80;;;;;;5110904;28;20019;-64
2021/08/29 09:26:44;;;;;;;27.23;18.02;;;16.40;75.60;;;;;;5116674;28;20382;-68
2021/08/29 09:29:23;;;;;;;30.48;18.60;;;16.40;75.80;;;;;;5116618;28;20016;-66
2021/08/29 09:31:52;;;;;;;31.33;20.00;;;16.40;75.80;;;;;;5111334;28;20398;-63
2021/08/29 09:34:23;;;;;;;28.00;18.60;;;16.40;75.90;;;;;;5090058;28;20089;-68
2021/08/29 09:37:01;;;;;;;30.55;19.45;;;16.40;75.90;;;;;;5096045;28;20021;-66
2021/08/29 09:39:28;;;;;;;30.77;19.70;;;16.40;76.00;;;;;;5096077;28;20028;-65
2021/08/29 09:42:05;;;;;;;32.20;19.55;;;16.40;76.00;;;;;;5095190;28;20024;-72
2021/08/29 09:44:35;;;;;;;29.13;19.90;;;16.40;76.00;;;;;;5090879;28;20020;-69
2021/08/29 09:47:05;;;;;;;30.02;19.23;;;16.40;76.00;;;;;;5095354;28;20059;-68
2021/08/29 09:49:35;;;;;;;26.45;17.65;;;16.40;75.90;;;;;;5095245;28;20036;-66
2021/08/29 09:52:05;;;;;;;31.35;19.90;;;16.30;75.90;;;;;;5095368;28;20066;-68
2021/08/29 09:54:45;;;;;;;29.95;17.88;;;16.30;75.90;;;;;;5089915;28;20083;-72
2021/08/29 09:57:14;;;;;;;29.02;18.83;;;16.30;76.00;;;;;;5092241;28;20363;-65
2021/08/29 09:59:45;;;;;;;27.88;19.45;;;16.30;75.90;;;;;;5095428;28;20133;-71
2021/08/29 10:02:19;;;;;;;30.80;18.90;;;16.30;76.00;;;;;;5091369;28;20550;-63
2021/08/29 10:04:47;;;;;;;30.90;19.45;;;16.20;76.00;;;;;;5089006;28;20048;-70
2021/08/29 10:07:17;;;;;;;30.13;18.42;;;16.20;75.90;;;;;;5097135;28;20202;-70
2021/08/29 10:09:46;;;;;;;31.60;20.35;;;16.20;76.10;;;;;;5095113;28;20066;-67
2021/08/29 10:12:14;;;;;;;32.10;19.35;;;16.20;76.00;;;;;;5094582;28;20506;-70
2021/08/29 10:14:42;;;;;;;27.65;18.52;;;16.20;76.00;;;;;;5087677;28;20023;-70
2021/08/29 10:17:11;;;;;;;25.58;18.48;;;16.20;75.90;;;;;;5090422;28;20024;-71
2021/08/29 10:20:06;;;;;;;30.70;19.10;;;16.20;76.40;;;;;;5094820;28;20406;-60
2021/08/29 10:22:36;;;;;;;32.00;18.83;;;16.20;75.90;;;;;;5092624;28;20024;-68
2021/08/29 10:25:04;;;;;;;29.95;19.27;;;16.10;75.80;;;;;;5088082;28;20124;-71
2021/08/29 10:27:34;;;;;;;28.20;18.63;;;16.10;75.90;;;;;;5094300;28;20027;-73
2021/08/29 10:30:03;;;;;;;26.25;16.88;;;16.10;75.90;;;;;;5095109;28;20051;-66
2021/08/29 10:32:36;;;;;;;31.20;18.88;;;16.10;76.00;;;;;;5094727;28;20464;-63
2021/08/29 10:35:10;;;;;;;26.02;18.38;;;16.00;76.10;;;;;;5071701;28;20035;-66
2021/08/29 10:37:39;;;;;;;27.83;18.25;;;16.00;76.10;;;;;;5094523;28;20482;-66
2021/08/29 10:40:08;;;;;;;25.80;17.40;;;16.00;76.00;;;;;;5094119;28;20039;-65
2021/08/29 10:42:38;;;;;;;31.63;18.35;;;16.00;76.00;;;;;;5094152;28;20016;-66
2021/08/29 10:45:06;;;;;;;30.75;18.50;;;16.00;76.00;;;;;;5091739;28;20431;-67
2021/08/29 10:47:35;;;;;;;26.00;15.95;;;16.00;76.10;;;;;;5095017;28;20378;-72
2021/08/29 10:50:05;;;;;;;27.45;17.05;;;15.90;76.00;;;;;;5094366;28;20020;-68
2021/08/29 10:52:36;;;;;;;23.40;16.90;;;15.90;76.00;;;;;;5094342;28;20028;-70
2021/08/29 10:55:08;;;;;;;24.67;16.67;;;15.90;76.40;;;;;;5090685;28;20344;-70
2021/08/29 10:57:40;;;;;;;24.52;16.48;;;15.90;76.00;;;;;;5093740;28;20036;-70
2021/08/29 11:00:26;;;;;;;24.45;16.50;;;15.90;75.80;;;;;;5090962;28;20027;-60
2021/08/29 11:02:54;;;;;;;26.80;17.75;;;15.90;76.00;;;;;;5111530;28;20016;-56
2021/08/29 11:05:31;;;;;;;23.98;16.60;;;15.90;76.00;;;;;;5112722;28;20019;-65
2021/08/29 11:07:58;;;;;;;24.95;16.67;;;15.90;76.00;;;;;;5114750;28;20096;-69
2021/08/29 11:10:45;;;;;;;25.88;16.88;;;15.90;75.90;;;;;;5114949;28;20024;-66
2021/08/29 11:13:35;;;;;;;28.33;16.30;;;15.90;76.50;;;;;;5107910;28;20028;-65
2021/08/29 11:16:15;;;;;;;23.30;15.52;;;15.80;75.70;;;;;;5112058;28;20355;-67
2021/08/29 11:19:01;;;;;;;24.27;15.63;;;15.80;75.80;;;;;;5115156;28;20048;-65
2021/08/29 11:21:35;;;;;;;21.48;15.20;;;15.80;75.50;;;;;;5111953;28;20024;-65
2021/08/29 11:24:04;;;;;;;22.17;15.60;;;15.80;75.70;;;;;;5108073;28;20103;-68
2021/08/29 11:26:33;;;;;;;23.25;15.15;;;15.80;75.60;;;;;;5114065;28;20094;-66
2021/08/29 11:29:02;;;;;;;22.33;15.32;;;15.80;75.60;;;;;;5114315;28;20114;-68
2021/08/29 11:31:51;;;;;;;19.92;14.48;;;15.80;75.60;;;;;;5113759;28;20370;-67
2021/08/29 11:34:19;;;;;;;24.38;14.48;;;15.70;75.40;;;;;;5089104;28;20393;-65
2021/08/29 11:36:47;;;;;;;21.48;14.77;;;15.70;75.40;;;;;;5113880;28;20047;-65
2021/08/29 11:39:35;;;;;;;18.90;14.23;;;15.70;75.40;;;;;;5095337;28;20040;-66
2021/08/29 11:42:31;;;;;;;22.27;14.20;;;15.70;75.50;;;;;;5134131;27;20317;-70
2021/08/29 11:45:00;;;;;;;22.13;14.55;;;15.70;75.40;;;;;;5114067;28;20046;-64
2021/08/29 11:47:42;;;;;;;24.55;14.57;;;15.60;75.50;;;;;;5130539;27;20011;-67
2021/08/29 11:50:12;;;;;;;23.58;14.88;;;15.70;75.50;;;;;;5129841;28;20076;-65
2021/08/29 11:52:42;;;;;;;20.98;13.40;;;15.60;75.50;;;;;;5130305;28;20043;-72
2021/08/29 11:55:19;;;;;;;19.17;12.75;;;15.60;75.10;;;;;;5122410;28;20104;-69
2021/08/29 11:57:49;;;;;;;20.45;14.07;;;15.60;75.20;;;;;;5126701;28;20100;-70
2021/08/29 12:00:18;;;;;;;21.80;13.60;;;15.60;75.40;;;;;;5129831;28;20024;-67
2021/08/29 12:02:46;;;;;;;21.92;14.40;;;15.60;75.30;;;;;;5130003;28;20504;-69
2021/08/29 12:05:18;;;;;;;21.77;14.05;;;15.60;75.40;;;;;;5123790;28;20450;-68
2021/08/29 12:08:05;;;;;;;20.35;13.18;;;15.60;75.40;;;;;;5129759;28;20027;-66
2021/08/29 12:10:33;;;;;;;19.40;12.70;;;15.60;75.40;;;;;;5129748;28;20019;-66
2021/08/29 12:13:06;;;;;;;18.80;13.00;;;15.50;75.40;;;;;;5124236;28;20028;-62
2021/08/29 12:15:34;;;;;;;16.10;11.75;;;15.50;75.40;;;;;;5111993;28;20508;-66
2021/08/29 12:18:07;;;;;;;17.02;12.13;;;15.50;75.20;;;;;;5122741;27;20034;-66
2021/08/29 12:20:35;;;;;;;20.02;12.63;;;15.50;75.20;;;;;;5130945;28;20142;-61
2021/08/29 12:23:08;;;;;;;16.17;12.85;;;15.50;75.20;;;;;;5124590;28;20027;-67
2021/08/29 12:25:37;;;;;;;;;;;15.50;75.10;;;;;;5110918;28;20064;-67
2021/08/29 12:28:10;;;;;;;17.90;12.20;;;15.50;75.20;;;;;;5124773;27;20415;-64
2021/08/29 12:30:39;;;;;;;16.02;11.38;;;15.40;75.10;;;;;;5125004;28;20038;-68
2021/08/29 12:33:25;;;;;;;17.10;12.38;;;15.40;75.40;;;;;;5111181;28;20020;-65
2021/08/29 12:35:54;;;;;;;18.25;11.75;;;15.30;75.20;;;;;;5117720;27;20020;-71
2021/08/29 12:38:23;;;;;;;16.38;11.95;;;15.30;75.30;;;;;;5125508;27;20025;-66
2021/08/29 12:40:52;;;;;;;15.90;12.65;;;15.30;75.50;;;;;;5124778;27;20075;-69
2021/08/29 12:43:20;;;;;;;15.43;10.98;;;15.30;75.60;;;;;;5117071;27;20076;-66
2021/08/29 12:45:48;;;;;;;17.52;11.88;;;15.20;75.60;;;;;;5121321;28;20386;-66
2021/08/29 12:48:16;;;;;;;15.80;11.63;;;15.20;75.60;;;;;;5124934;28;20407;-67
2021/08/29 12:50:53;;;;;;;14.70;11.20;;;15.20;75.80;;;;;;5124676;27;20031;-66
2021/08/29 12:53:24;;;;;;;17.17;11.13;;;15.20;75.80;;;;;;5103357;27;20072;-67
2021/08/29 12:55:54;;;;;;;17.00;11.90;;;15.20;75.90;;;;;;5106441;28;20371;-67
2021/08/29 12:58:26;;;;;;;15.77;11.18;;;15.20;75.90;;;;;;5092701;28;20030;-70
2021/08/29 13:00:58;;;;;;;15.85;11.75;;;15.10;75.90;;;;;;5111409;28;20030;-72